createdAt,value
2024-02-29T00:01:29.348Z,52.83
2024-02-29T00:04:05.334Z,53.38
2024-02-29T00:06:39.289Z,54.13
2024-02-29T00:09:19.293Z,53.89
2024-02-29T00:12:00.227Z,53.12
2024-02-29T00:14:31.531Z,53.21
2024-02-29T00:17:07.492Z,54.73
2024-02-29T00:19:42.030Z,55.57
2024-02-29T00:22:13.760Z,55.73
2024-02-29T00:24:48.125Z,56.64
2024-02-29T00:27:30.378Z,57.12
2024-02-29T00:30:02.876Z,57.76
2024-02-29T00:32:42.901Z,57.17
2024-02-29T00:35:34.952Z,57.09
2024-02-29T00:38:09.030Z,56.24
2024-02-29T00:40:40.587Z,56.55
2024-02-29T00:43:15.257Z,57.36
2024-02-29T00:45:46.840Z,57.74
2024-02-29T00:48:20.634Z,56.65
2024-02-29T00:50:54.099Z,56.55
2024-02-29T00:53:25.188Z,55.97
2024-02-29T00:56:17.090Z,56.18
2024-02-29T00:58:55.903Z,55.63
2024-02-29T01:01:30.564Z,55.45
2024-02-29T01:04:09.524Z,55.39
2024-02-29T01:06:42.493Z,54.77
2024-02-29T01:09:14.301Z,55.39
2024-02-29T01:11:45.875Z,57.17
2024-02-29T01:14:17.063Z,56.89
2024-02-29T01:17:10.802Z,56.59
2024-02-29T01:20:15.729Z,55.44
2024-02-29T01:22:49.428Z,55.54
2024-02-29T01:26:00.966Z,55.47
2024-02-29T01:28:45.344Z,55.62
2024-02-29T01:31:19.836Z,56.37
2024-02-29T01:33:54.541Z,56.42
2024-02-29T01:36:51.901Z,56.09
2024-02-29T01:39:46.773Z,54.80
2024-02-29T01:42:47.491Z,55.38
2024-02-29T01:45:19.169Z,55.94
2024-02-29T01:47:50.308Z,55.71
2024-02-29T01:50:27.137Z,55.50
2024-02-29T01:53:03.982Z,55.55
2024-02-29T01:55:35.622Z,54.86
2024-02-29T01:58:17.021Z,55.40
2024-02-29T02:01:08.776Z,55.16
2024-02-29T02:03:48.197Z,55.67
2024-02-29T02:06:19.629Z,54.61
2024-02-29T02:08:53.921Z,54.21
2024-02-29T02:11:55.516Z,55.30
2024-02-29T02:14:26.948Z,55.96
2024-02-29T02:17:03.755Z,55.09
2024-02-29T02:19:43.997Z,54.10
2024-02-29T02:22:57.223Z,53.88
2024-02-29T02:25:41.716Z,54.25
2024-02-29T02:28:16.426Z,54.67
2024-02-29T02:30:48.424Z,54.49
2024-02-29T02:33:20.109Z,56.55
2024-02-29T02:36:11.812Z,56.73
2024-02-29T02:39:09.503Z,57.36
2024-02-29T02:41:53.960Z,58.22
2024-02-29T02:44:25.279Z,57.79
2024-02-29T02:46:56.878Z,57.93
2024-02-29T02:49:28.174Z,57.21
2024-02-29T02:51:59.696Z,58.07
2024-02-29T02:54:38.723Z,57.90
2024-02-29T02:57:12.980Z,57.83
2024-02-29T03:00:07.719Z,58.84
2024-02-29T03:02:48.772Z,57.13
2024-02-29T03:05:24.040Z,57.26
2024-02-29T03:07:55.271Z,57.07
2024-02-29T03:10:35.662Z,57.69
2024-02-29T03:13:25.340Z,57.10
2024-02-29T03:16:29.845Z,56.71
2024-02-29T03:19:06.388Z,56.03
2024-02-29T03:21:44.187Z,55.62
2024-02-29T03:24:15.917Z,55.65
2024-02-29T03:26:50.077Z,55.73
2024-02-29T03:29:21.335Z,57.17
2024-02-29T03:32:00.158Z,58.25
2024-02-29T03:34:37.792Z,58.61
2024-02-29T03:37:09.568Z,58.91
2024-02-29T03:39:54.621Z,58.66
2024-02-29T03:42:32.139Z,58.13
2024-02-29T03:45:13.764Z,57.45
2024-02-29T03:48:11.232Z,57.56
2024-02-29T03:50:56.839Z,56.50
2024-02-29T03:53:32.920Z,56.72
2024-02-29T03:56:08.245Z,56.74
2024-02-29T03:58:45.774Z,56.34
2024-02-29T04:01:22.385Z,57.01
2024-02-29T04:03:53.367Z,57.70
2024-02-29T04:06:27.603Z,58.72
2024-02-29T04:08:58.992Z,57.52
2024-02-29T04:11:30.354Z,57.17
2024-02-29T04:14:05.386Z,57.83
2024-02-29T04:16:40.154Z,57.72
2024-02-29T04:19:11.606Z,58.05
2024-02-29T04:21:47.734Z,58.43
2024-02-29T04:24:18.806Z,58.68
2024-02-29T04:26:53.362Z,59.22
2024-02-29T04:29:27.497Z,59.96
2024-02-29T04:32:02.563Z,59.11
2024-02-29T04:34:38.613Z,59.46
2024-02-29T04:37:10.218Z,59.65
2024-02-29T04:39:44.461Z,60.41
2024-02-29T04:42:18.719Z,60.43
2024-02-29T04:44:55.064Z,59.64
2024-02-29T04:47:26.590Z,62.21
2024-02-29T04:50:04.668Z,62.78
2024-02-29T04:52:36.242Z,62.25
2024-02-29T04:55:08.365Z,62.54
2024-02-29T04:57:40.019Z,63.03
2024-02-29T05:00:18.961Z,63.46
2024-02-29T05:03:19.485Z,64.42
2024-02-29T05:05:56.877Z,62.49
2024-02-29T05:08:31.975Z,64.14
2024-02-29T05:11:03.493Z,63.39
2024-02-29T05:13:59.311Z,64.76
2024-02-29T05:16:53.773Z,66.08
2024-02-29T05:19:53.444Z,65.40
2024-02-29T05:22:40.071Z,67.13
2024-02-29T05:25:14.991Z,66.12
2024-02-29T05:27:46.468Z,66.84
2024-02-29T05:30:21.873Z,67.20
2024-02-29T05:33:13.988Z,66.81
2024-02-29T05:35:59.197Z,67.09
2024-02-29T05:38:33.700Z,65.92
2024-02-29T05:41:08.805Z,64.39
2024-02-29T05:43:43.220Z,62.45
2024-02-29T05:46:14.839Z,61.62
2024-02-29T05:48:51.996Z,61.28
2024-02-29T05:51:23.564Z,59.50
2024-02-29T05:53:54.839Z,57.79
2024-02-29T05:56:26.521Z,57.71
2024-02-29T05:59:00.346Z,57.22
2024-02-29T06:01:35.068Z,56.88
2024-02-29T06:04:22.426Z,56.55
2024-02-29T06:06:59.142Z,57.08
2024-02-29T06:09:36.682Z,56.90
2024-02-29T06:12:08.640Z,58.20
2024-02-29T06:14:43.307Z,58.30
2024-02-29T06:17:15.361Z,58.33
2024-02-29T06:19:52.550Z,57.85
2024-02-29T06:22:27.809Z,58.18
2024-02-29T06:25:10.963Z,59.25
2024-02-29T06:27:44.747Z,59.68
2024-02-29T06:30:33.832Z,59.35
2024-02-29T06:33:45.790Z,59.38
2024-02-29T06:36:25.597Z,60.18
2024-02-29T06:39:17.208Z,58.97
2024-02-29T06:41:48.553Z,59.72
2024-02-29T06:44:42.502Z,61.35
2024-02-29T06:47:19.077Z,59.33
2024-02-29T06:49:50.388Z,58.87
2024-02-29T06:52:24.498Z,59.00
2024-02-29T06:54:59.028Z,59.81
2024-02-29T06:57:32.845Z,58.76
2024-02-29T07:00:27.692Z,58.37
2024-02-29T07:02:59.201Z,57.09
2024-02-29T07:05:41.665Z,56.46
2024-02-29T07:08:37.649Z,55.92
2024-02-29T07:11:40.740Z,57.43
2024-02-29T07:14:40.477Z,57.39
2024-02-29T07:18:15.555Z,55.19
2024-02-29T07:20:53.783Z,53.97
2024-02-29T07:23:27.520Z,53.37
2024-02-29T07:26:06.832Z,54.29
2024-02-29T07:28:38.298Z,55.03
2024-02-29T07:31:10.041Z,53.53
2024-02-29T07:33:55.263Z,52.69
2024-02-29T07:36:27.421Z,51.64
2024-02-29T07:38:58.656Z,51.73
2024-02-29T07:41:53.300Z,52.90
2024-02-29T07:44:35.980Z,53.50
2024-02-29T07:47:07.282Z,53.18
2024-02-29T07:49:51.275Z,52.36
2024-02-29T07:53:03.132Z,52.01
2024-02-29T07:55:34.611Z,52.32
2024-02-29T07:58:11.682Z,53.64
2024-02-29T08:01:04.516Z,53.63
2024-02-29T08:03:58.248Z,53.18
2024-02-29T08:06:50.103Z,54.62
2024-02-29T08:09:24.180Z,54.71
2024-02-29T08:11:59.904Z,54.12
2024-02-29T08:14:36.900Z,55.12
2024-02-29T08:17:35.925Z,52.93
2024-02-29T08:20:09.542Z,52.53
2024-02-29T08:22:41.134Z,54.63
2024-02-29T08:25:13.345Z,52.72
2024-02-29T08:27:53.887Z,54.28
2024-02-29T08:30:30.811Z,53.53
2024-02-29T08:33:11.567Z,52.98
2024-02-29T08:35:43.372Z,53.83
2024-02-29T08:38:14.713Z,52.83
2024-02-29T08:40:54.295Z,51.82
2024-02-29T08:43:48.175Z,50.75
2024-02-29T08:46:22.327Z,50.08
2024-02-29T08:48:53.948Z,48.82
2024-02-29T08:51:25.354Z,49.00
2024-02-29T08:54:07.566Z,47.72
2024-02-29T08:56:39.204Z,48.14
2024-02-29T08:59:27.961Z,47.31
2024-02-29T09:02:06.958Z,45.86
2024-02-29T09:04:38.285Z,46.54
2024-02-29T09:07:11.112Z,46.65
2024-02-29T09:10:01.584Z,48.32
2024-02-29T09:12:43.256Z,48.58
2024-02-29T09:15:35.130Z,48.56
2024-02-29T09:18:10.512Z,46.96
2024-02-29T09:20:41.716Z,46.54
2024-02-29T09:23:20.696Z,45.95
2024-02-29T09:25:55.475Z,44.24
2024-02-29T09:28:30.363Z,44.13
2024-02-29T09:31:01.948Z,43.55
2024-02-29T09:33:39.064Z,42.38
2024-02-29T09:36:14.256Z,42.72
2024-02-29T09:39:06.621Z,42.04
2024-02-29T09:41:59.504Z,43.17
2024-02-29T09:44:31.772Z,42.01
2024-02-29T09:47:03.503Z,41.35
2024-02-29T09:49:37.755Z,43.34
2024-02-29T09:52:11.268Z,42.58
2024-02-29T09:54:47.403Z,43.55
2024-02-29T09:57:18.953Z,42.17
2024-02-29T09:59:51.776Z,41.70
2024-02-29T10:02:23.492Z,41.48
2024-02-29T10:04:57.941Z,40.35
2024-02-29T10:07:47.245Z,42.13
2024-02-29T10:10:23.949Z,43.17
2024-02-29T10:13:26.660Z,44.11
2024-02-29T10:16:20.877Z,43.41
2024-02-29T10:18:55.567Z,43.35
2024-02-29T10:21:37.302Z,42.95
2024-02-29T10:24:11.583Z,42.97
2024-02-29T10:26:43.331Z,42.75
2024-02-29T10:29:23.855Z,42.03
2024-02-29T10:31:55.361Z,41.00
2024-02-29T10:34:30.084Z,42.68
2024-02-29T10:37:07.667Z,41.74
2024-02-29T10:39:42.140Z,41.68
2024-02-29T10:42:15.178Z,42.61
2024-02-29T10:44:49.318Z,42.93
2024-02-29T10:47:22.068Z,42.28
2024-02-29T10:49:59.690Z,41.97
2024-02-29T10:52:39.368Z,43.10
2024-02-29T10:55:16.555Z,41.97
2024-02-29T10:57:57.921Z,41.44
2024-02-29T11:00:30.076Z,39.96
2024-02-29T11:03:02.072Z,40.68
2024-02-29T11:05:33.574Z,39.95
2024-02-29T11:08:08.940Z,39.46
2024-02-29T11:10:40.893Z,42.12
2024-02-29T11:13:22.881Z,41.45
2024-02-29T11:15:55.221Z,40.97
2024-02-29T11:18:29.492Z,40.37
2024-02-29T11:21:10.858Z,39.17
2024-02-29T11:23:51.151Z,40.17
2024-02-29T11:26:32.811Z,39.07
2024-02-29T11:29:35.461Z,38.70
2024-02-29T11:32:10.519Z,38.82
2024-02-29T11:34:45.432Z,38.66
2024-02-29T11:37:22.621Z,39.15
2024-02-29T11:40:06.961Z,37.15
2024-02-29T11:42:40.666Z,37.58
2024-02-29T11:45:32.992Z,36.35
2024-02-29T11:48:22.287Z,36.45
2024-02-29T11:51:08.073Z,36.01
2024-02-29T11:53:40.514Z,36.97
2024-02-29T11:56:16.606Z,36.08
2024-02-29T11:58:50.653Z,35.27
2024-02-29T12:01:30.470Z,35.09
2024-02-29T12:04:06.388Z,36.57
2024-02-29T12:06:41.884Z,36.85
2024-02-29T12:09:21.100Z,36.86
2024-02-29T12:11:58.646Z,34.78
2024-02-29T12:14:53.500Z,34.92
2024-02-29T12:17:29.281Z,35.22
2024-02-29T12:20:21.317Z,36.06
2024-02-29T12:23:12.770Z,35.54
2024-02-29T12:25:44.376Z,36.50
2024-02-29T12:28:19.320Z,36.66
2024-02-29T12:30:53.052Z,35.98
2024-02-29T12:33:26.453Z,35.64
2024-02-29T12:36:02.237Z,37.17
2024-02-29T12:38:36.399Z,37.56
2024-02-29T12:41:11.893Z,36.74
2024-02-29T12:43:55.766Z,37.21
2024-02-29T12:46:30.579Z,35.38
2024-02-29T12:49:05.280Z,35.47
2024-02-29T12:51:43.650Z,35.60
2024-02-29T12:54:33.267Z,35.94
2024-02-29T12:57:11.241Z,35.70
2024-02-29T13:00:07.141Z,36.05
2024-02-29T13:02:49.511Z,37.33
2024-02-29T13:05:31.725Z,36.30
2024-02-29T13:08:05.940Z,37.65
2024-02-29T13:10:38.573Z,35.66
2024-02-29T13:13:13.092Z,35.89
2024-02-29T13:15:48.118Z,36.30
2024-02-29T13:18:28.927Z,36.75
2024-02-29T13:21:03.834Z,36.91
2024-02-29T13:23:38.016Z,36.17
2024-02-29T13:26:09.643Z,36.17
2024-02-29T13:28:45.368Z,37.68
2024-02-29T13:31:20.182Z,36.04
2024-02-29T13:33:52.359Z,35.93
2024-02-29T13:36:24.066Z,36.53
2024-02-29T13:38:56.467Z,35.43
2024-02-29T13:41:28.590Z,35.77
2024-02-29T13:44:02.647Z,35.42
2024-02-29T13:46:38.446Z,36.86
2024-02-29T13:49:21.465Z,36.36
2024-02-29T13:52:19.094Z,37.29
2024-02-29T13:55:06.780Z,37.72
2024-02-29T13:58:03.431Z,36.77
2024-02-29T14:00:53.641Z,35.94
2024-02-29T14:03:41.110Z,34.76
2024-02-29T14:06:19.653Z,34.41
2024-02-29T14:08:55.163Z,34.78
2024-02-29T14:11:29.949Z,37.38
2024-02-29T14:14:02.706Z,37.04
2024-02-29T14:16:37.795Z,39.21
2024-02-29T14:19:12.431Z,37.87
2024-02-29T14:21:44.585Z,38.75
2024-02-29T14:24:15.920Z,38.50
2024-02-29T14:26:47.492Z,37.96
2024-02-29T14:29:21.824Z,38.15
2024-02-29T14:32:02.725Z,38.84
2024-02-29T14:34:38.810Z,39.04
2024-02-29T14:37:21.504Z,39.10
2024-02-29T14:39:53.977Z,38.00
2024-02-29T14:42:28.833Z,38.43
2024-02-29T14:45:09.539Z,39.23
2024-02-29T14:47:43.791Z,40.19
2024-02-29T14:50:17.965Z,40.17
2024-02-29T14:52:49.098Z,40.49
2024-02-29T14:55:20.235Z,39.58
2024-02-29T14:57:52.631Z,39.55
2024-02-29T15:00:24.770Z,38.51
2024-02-29T15:02:56.763Z,38.74
2024-02-29T15:05:30.762Z,39.05
2024-02-29T15:08:02.592Z,38.60
2024-02-29T15:10:34.170Z,37.51
2024-02-29T15:13:08.748Z,37.09
2024-02-29T15:15:44.055Z,37.37
2024-02-29T15:18:15.269Z,36.60
2024-02-29T15:20:49.142Z,36.35
2024-02-29T15:23:20.447Z,36.11
2024-02-29T15:25:51.662Z,35.34
2024-02-29T15:28:25.864Z,35.77
2024-02-29T15:30:57.435Z,34.96
2024-02-29T15:33:29.119Z,35.07
2024-02-29T15:36:03.329Z,35.54
2024-02-29T15:38:34.828Z,35.18
2024-02-29T15:41:06.220Z,34.97
2024-02-29T15:43:40.794Z,34.96
2024-02-29T15:46:13.358Z,34.79
2024-02-29T15:48:45.426Z,35.50
2024-02-29T15:51:25.681Z,35.89
2024-02-29T15:53:58.852Z,36.07
2024-02-29T15:56:30.678Z,35.66
2024-02-29T15:59:06.635Z,34.59
2024-02-29T16:01:38.603Z,34.57
2024-02-29T16:04:10.358Z,35.70
2024-02-29T16:06:44.836Z,34.92
2024-02-29T16:09:16.946Z,37.12
2024-02-29T16:11:49.139Z,37.68
2024-02-29T16:14:20.979Z,39.01
2024-02-29T16:16:52.785Z,39.09
2024-02-29T16:19:25.566Z,40.49
2024-02-29T16:22:02.020Z,40.42
2024-02-29T16:24:33.110Z,41.05
2024-02-29T16:27:04.521Z,40.63
2024-02-29T16:29:35.969Z,41.47
2024-02-29T16:32:07.811Z,43.83
2024-02-29T16:34:39.620Z,43.58
2024-02-29T16:37:13.875Z,44.00
2024-02-29T16:39:46.240Z,45.46
2024-02-29T16:42:21.321Z,45.09
2024-02-29T16:44:54.373Z,44.40
2024-02-29T16:47:25.903Z,45.49
2024-02-29T16:49:57.724Z,44.59
2024-02-29T16:52:32.458Z,46.25
2024-02-29T16:55:13.184Z,46.63
2024-02-29T16:57:44.606Z,46.80
2024-02-29T17:00:19.642Z,46.60
2024-02-29T17:03:03.567Z,45.57
2024-02-29T17:05:57.698Z,45.88
2024-02-29T17:08:31.760Z,46.32
2024-02-29T17:11:10.735Z,45.64
2024-02-29T17:13:48.069Z,44.98
2024-02-29T17:16:20.410Z,45.89
2024-02-29T17:18:51.725Z,45.89
2024-02-29T17:21:26.777Z,46.59
2024-02-29T17:24:32.260Z,46.96
2024-02-29T17:27:03.516Z,46.66
2024-02-29T17:29:34.851Z,46.84
2024-02-29T17:32:07.777Z,47.31
2024-02-29T17:34:44.126Z,47.11
2024-02-29T17:37:20.462Z,46.67
2024-02-29T17:39:56.029Z,46.69
2024-02-29T17:42:29.220Z,46.52
2024-02-29T17:45:00.794Z,47.49
2024-02-29T17:47:32.538Z,47.58
2024-02-29T17:50:16.936Z,48.22
2024-02-29T17:52:58.364Z,48.81
2024-02-29T17:55:32.858Z,47.78
2024-02-29T17:58:15.172Z,47.39
2024-02-29T18:01:17.314Z,47.71
2024-02-29T18:03:50.378Z,47.30
2024-02-29T18:06:42.033Z,48.89
2024-02-29T18:09:15.048Z,49.34
2024-02-29T18:11:49.254Z,49.75
2024-02-29T18:14:35.390Z,50.03
2024-02-29T18:17:09.405Z,51.10
2024-02-29T18:19:42.240Z,51.79
2024-02-29T18:22:41.614Z,52.45
2024-02-29T18:25:53.697Z,52.77
2024-02-29T18:28:51.024Z,54.59
2024-02-29T18:31:24.596Z,53.94
2024-02-29T18:33:59.051Z,53.66
2024-02-29T18:36:30.532Z,54.16
2024-02-29T18:39:26.366Z,54.70
2024-02-29T18:42:11.481Z,54.50
2024-02-29T18:44:47.220Z,53.27
2024-02-29T18:47:44.364Z,53.85
2024-02-29T18:50:35.953Z,53.41
2024-02-29T18:53:10.698Z,53.43
2024-02-29T18:55:51.368Z,53.82
2024-02-29T18:58:32.304Z,53.38
2024-02-29T19:01:37.226Z,52.91
2024-02-29T19:04:40.286Z,52.35
2024-02-29T19:07:14.089Z,51.31
2024-02-29T19:09:45.450Z,51.73
2024-02-29T19:12:18.257Z,51.98
2024-02-29T19:15:12.618Z,52.90
2024-02-29T19:17:49.293Z,52.83
2024-02-29T19:20:20.799Z,51.56
2024-02-29T19:22:52.337Z,52.05
2024-02-29T19:25:32.594Z,50.94
2024-02-29T19:28:04.083Z,51.47
2024-02-29T19:30:56.286Z,50.04
2024-02-29T19:33:30.271Z,50.51
2024-02-29T19:36:25.088Z,51.43
2024-02-29T19:39:18.662Z,50.88
2024-02-29T19:41:52.633Z,51.24
2024-02-29T19:44:24.185Z,51.69
2024-02-29T19:46:55.793Z,51.14
2024-02-29T19:49:50.266Z,50.42
2024-02-29T19:52:41.725Z,50.57
2024-02-29T19:55:24.025Z,50.70
2024-02-29T19:58:01.144Z,50.10
2024-02-29T20:00:36.531Z,50.64
2024-02-29T20:03:08.841Z,51.04
2024-02-29T20:05:43.779Z,51.24
2024-02-29T20:08:15.681Z,50.64
2024-02-29T20:10:47.129Z,51.19
2024-02-29T20:13:19.995Z,50.16
2024-02-29T20:15:51.988Z,50.41
2024-02-29T20:18:43.725Z,49.86
2024-02-29T20:21:18.341Z,51.03
2024-02-29T20:23:50.185Z,51.11
2024-02-29T20:26:21.618Z,51.58
2024-02-29T20:28:54.234Z,50.66
2024-02-29T20:31:36.678Z,52.68
2024-02-29T20:34:15.476Z,51.73
2024-02-29T20:36:55.772Z,51.95
2024-02-29T20:39:27.027Z,52.20
2024-02-29T20:42:00.864Z,52.62
2024-02-29T20:44:32.245Z,52.00
2024-02-29T20:47:03.488Z,51.68
2024-02-29T20:49:38.170Z,52.87
2024-02-29T20:52:16.598Z,53.87
2024-02-29T20:55:00.390Z,53.05
2024-02-29T20:57:34.865Z,54.55
2024-02-29T21:00:06.568Z,56.19
2024-02-29T21:02:37.614Z,55.73
2024-02-29T21:05:10.481Z,56.24
2024-02-29T21:07:47.721Z,56.52
2024-02-29T21:10:22.662Z,56.85
2024-02-29T21:12:57.669Z,56.96
2024-02-29T21:15:28.842Z,56.74
2024-02-29T21:18:00.097Z,57.48
2024-02-29T21:20:35.544Z,56.63
2024-02-29T21:23:09.904Z,55.59
2024-02-29T21:25:50.434Z,54.77
2024-02-29T21:28:22.271Z,58.68
2024-02-29T21:31:14.925Z,57.79
2024-02-29T21:33:46.362Z,57.75
2024-02-29T21:36:58.176Z,58.90
2024-02-29T21:39:55.198Z,58.29
2024-02-29T21:42:40.326Z,57.46
2024-02-29T21:45:22.050Z,58.31
2024-02-29T21:48:13.834Z,57.30
2024-02-29T21:50:58.473Z,57.69
2024-02-29T21:54:00.994Z,55.81
2024-02-29T21:56:46.934Z,55.36
2024-02-29T21:59:38.304Z,56.23
2024-02-29T22:02:12.085Z,57.23
2024-02-29T22:05:17.192Z,56.81
2024-02-29T22:07:51.314Z,56.63
2024-02-29T22:10:44.254Z,56.72
2024-02-29T22:13:48.809Z,56.00
2024-02-29T22:17:00.518Z,56.62
2024-02-29T22:20:18.327Z,56.23
2024-02-29T22:23:20.517Z,55.47
2024-02-29T22:26:32.045Z,57.01
2024-02-29T22:29:28.804Z,57.80
2024-02-29T22:32:40.478Z,60.53
2024-02-29T22:35:31.979Z,60.66
2024-02-29T22:38:12.909Z,58.78
2024-02-29T22:41:04.388Z,57.76
2024-02-29T22:43:35.969Z,56.51
2024-02-29T22:46:29.931Z,56.47
2024-02-29T22:49:17.910Z,58.28
2024-02-29T22:52:19.661Z,60.09
2024-02-29T22:55:12.537Z,59.68
2024-02-29T22:57:48.475Z,60.00
2024-02-29T23:00:40.562Z,58.59
2024-02-29T23:03:14.686Z,58.98
2024-02-29T23:05:46.710Z,58.11
2024-02-29T23:08:18.049Z,56.69
2024-02-29T23:10:49.284Z,57.19
2024-02-29T23:13:20.617Z,58.40
2024-02-29T23:15:51.983Z,59.19
2024-02-29T23:18:25.781Z,59.83
2024-02-29T23:20:57.955Z,59.79
2024-02-29T23:23:29.018Z,60.84
2024-02-29T23:25:59.941Z,60.66
2024-02-29T23:28:31.094Z,60.45
2024-02-29T23:31:02.219Z,61.83
2024-02-29T23:33:36.580Z,61.98
2024-02-29T23:36:09.933Z,60.80
2024-02-29T23:38:41.018Z,60.27
2024-02-29T23:41:12.056Z,58.97
2024-02-29T23:43:43.067Z,58.11
2024-02-29T23:46:14.471Z,57.55
2024-02-29T23:48:48.215Z,57.27
2024-02-29T23:51:20.998Z,57.45
2024-02-29T23:53:54.728Z,57.36
2024-02-29T23:56:25.995Z,55.91
2024-02-29T23:58:57.172Z,56.23
